sensor_id;sensor_type;location;lat;lon;timestamp;pressure;altitude;pressure_sealevel;temperature;humidity
19624;BME280;9959;49.798;9.928;2023-12-14T00:02:03;98567.09;;;3.40;100.00
19624;BME280;9959;49.798;9.928;2023-12-14T00:04:30;98567.22;;;3.32;100.00
19624;BME280;9959;49.798;9.928;2023-12-14T00:06:57;98578.47;;;3.27;100.00
19624;BME280;9959;49.798;9.928;2023-12-14T00:09:24;98577.41;;;3.22;100.00
19624;BME280;9959;49.798;9.928;2023-12-14T00:11:51;98579.78;;;3.17;100.00
19624;BME280;9959;49.798;9.928;2023-12-14T00:14:17;98580.44;;;3.19;100.00
19624;BME280;9959;49.798;9.928;2023-12-14T00:16:44;98592.09;;;3.18;100.00
19624;BME280;9959;49.798;9.928;2023-12-14T00:19:23;98588.78;;;3.16;100.00
19624;BME280;9959;49.798;9.928;2023-12-14T00:21:50;98592.47;;;3.15;100.00
19624;BME280;9959;49.798;9.928;2023-12-14T00:24:17;98597.03;;;3.21;100.00
19624;BME280;9959;49.798;9.928;2023-12-14T00:26:47;98594.88;;;3.10;100.00
19624;BME280;9959;49.798;9.928;2023-12-14T00:29:13;98595.63;;;3.03;100.00
19624;BME280;9959;49.798;9.928;2023-12-14T00:31:41;98595.75;;;2.95;100.00
19624;BME280;9959;49.798;9.928;2023-12-14T00:34:07;98599.81;;;2.91;100.00
19624;BME280;9959;49.798;9.928;2023-12-14T00:36:34;98592.09;;;2.96;100.00
19624;BME280;9959;49.798;9.928;2023-12-14T00:39:01;98600.63;;;2.92;100.00
19624;BME280;9959;49.798;9.928;2023-12-14T00:41:28;98605.50;;;3.10;100.00
19624;BME280;9959;49.798;9.928;2023-12-14T00:43:55;98607.91;;;3.04;100.00
19624;BME280;9959;49.798;9.928;2023-12-14T00:46:22;98612.38;;;2.97;100.00
19624;BME280;9959;49.798;9.928;2023-12-14T00:48:49;98619.44;;;3.12;100.00
19624;BME280;9959;49.798;9.928;2023-12-14T00:51:16;98617.06;;;3.17;100.00
19624;BME280;9959;49.798;9.928;2023-12-14T00:53:45;98620.91;;;2.93;100.00
19624;BME280;9959;49.798;9.928;2023-12-14T00:56:13;98621.19;;;2.83;100.00
19624;BME280;9959;49.798;9.928;2023-12-14T00:58:40;98622.84;;;2.84;100.00
19624;BME280;9959;49.798;9.928;2023-12-14T01:01:07;98624.59;;;2.77;100.00
19624;BME280;9959;49.798;9.928;2023-12-14T01:03:34;98634.75;;;2.88;100.00
19624;BME280;9959;49.798;9.928;2023-12-14T01:06:01;98634.75;;;2.88;100.00
19624;BME280;9959;49.798;9.928;2023-12-14T01:08:27;98639.50;;;2.71;100.00
19624;BME280;9959;49.798;9.928;2023-12-14T01:10:54;98644.81;;;2.71;100.00
19624;BME280;9959;49.798;9.928;2023-12-14T01:13:21;98652.19;;;2.76;100.00
19624;BME280;9959;49.798;9.928;2023-12-14T01:15:48;98661.22;;;2.60;100.00
19624;BME280;9959;49.798;9.928;2023-12-14T01:18:19;98660.31;;;2.68;100.00
19624;BME280;9959;49.798;9.928;2023-12-14T01:20:46;98662.47;;;2.79;100.00
19624;BME280;9959;49.798;9.928;2023-12-14T01:23:14;98671.72;;;2.83;100.00
19624;BME280;9959;49.798;9.928;2023-12-14T01:25:41;98671.22;;;2.73;100.00
19624;BME280;9959;49.798;9.928;2023-12-14T01:28:08;98675.94;;;2.78;100.00
19624;BME280;9959;49.798;9.928;2023-12-14T01:30:35;98672.97;;;2.66;100.00
19624;BME280;9959;49.798;9.928;2023-12-14T01:33:03;98684.13;;;2.61;100.00
19624;BME280;9959;49.798;9.928;2023-12-14T01:35:30;98678.16;;;2.74;100.00
19624;BME280;9959;49.798;9.928;2023-12-14T01:37:57;98689.63;;;2.75;100.00
19624;BME280;9959;49.798;9.928;2023-12-14T01:40:24;98696.94;;;2.87;100.00
19624;BME280;9959;49.798;9.928;2023-12-14T01:42:51;98700.56;;;3.16;100.00
19624;BME280;9959;49.798;9.928;2023-12-14T01:45:18;98695.88;;;3.18;100.00
19624;BME280;9959;49.798;9.928;2023-12-14T01:47:45;98704.31;;;3.21;100.00
19624;BME280;9959;49.798;9.928;2023-12-14T01:50:12;98715.69;;;3.15;100.00
19624;BME280;9959;49.798;9.928;2023-12-14T01:52:39;98719.47;;;3.21;100.00
19624;BME280;9959;49.798;9.928;2023-12-14T01:55:06;98716.78;;;3.21;100.00
19624;BME280;9959;49.798;9.928;2023-12-14T01:57:33;98717.44;;;3.23;100.00
19624;BME280;9959;49.798;9.928;2023-12-14T02:00:00;98723.63;;;3.30;100.00
19624;BME280;9959;49.798;9.928;2023-12-14T02:02:27;98732.63;;;3.29;100.00
19624;BME280;9959;49.798;9.928;2023-12-14T02:04:54;98729.09;;;3.22;100.00
19624;BME280;9959;49.798;9.928;2023-12-14T02:07:21;98735.94;;;3.31;100.00
19624;BME280;9959;49.798;9.928;2023-12-14T02:09:48;98740.38;;;3.24;100.00
19624;BME280;9959;49.798;9.928;2023-12-14T02:12:17;98745.69;;;3.24;100.00
19624;BME280;9959;49.798;9.928;2023-12-14T02:14:43;98745.13;;;3.28;100.00
19624;BME280;9959;49.798;9.928;2023-12-14T02:17:10;98752.84;;;3.23;100.00
19624;BME280;9959;49.798;9.928;2023-12-14T02:19:37;98753.88;;;3.22;100.00
19624;BME280;9959;49.798;9.928;2023-12-14T02:22:04;98749.38;;;3.23;100.00
19624;BME280;9959;49.798;9.928;2023-12-14T02:24:31;98751.84;;;3.24;100.00
19624;BME280;9959;49.798;9.928;2023-12-14T02:30:27;98758.00;;;3.25;100.00
19624;BME280;9959;49.798;9.928;2023-12-14T02:32:54;98761.31;;;3.27;100.00
19624;BME280;9959;49.798;9.928;2023-12-14T02:35:21;98773.19;;;3.31;100.00
19624;BME280;9959;49.798;9.928;2023-12-14T02:37:49;98762.81;;;3.36;100.00
19624;BME280;9959;49.798;9.928;2023-12-14T02:40:16;98778.69;;;3.44;100.00
19624;BME280;9959;49.798;9.928;2023-12-14T02:42:43;98778.78;;;3.51;100.00
19624;BME280;9959;49.798;9.928;2023-12-14T02:45:10;98777.94;;;3.50;100.00
19624;BME280;9959;49.798;9.928;2023-12-14T02:47:37;98778.63;;;3.59;100.00
19624;BME280;9959;49.798;9.928;2023-12-14T02:50:05;98780.88;;;3.55;100.00
19624;BME280;9959;49.798;9.928;2023-12-14T02:52:32;98789.88;;;3.54;100.00
19624;BME280;9959;49.798;9.928;2023-12-14T02:54:59;98785.97;;;3.57;100.00
19624;BME280;9959;49.798;9.928;2023-12-14T02:57:26;98799.19;;;3.65;100.00
19624;BME280;9959;49.798;9.928;2023-12-14T02:59:53;98796.25;;;3.60;100.00
19624;BME280;9959;49.798;9.928;2023-12-14T03:02:20;98796.03;;;3.55;100.00
19624;BME280;9959;49.798;9.928;2023-12-14T03:04:47;98805.44;;;3.57;100.00
19624;BME280;9959;49.798;9.928;2023-12-14T03:07:14;98802.19;;;3.55;100.00
19624;BME280;9959;49.798;9.928;2023-12-14T03:09:41;98802.97;;;3.56;100.00
19624;BME280;9959;49.798;9.928;2023-12-14T03:12:11;98807.09;;;3.58;100.00
19624;BME280;9959;49.798;9.928;2023-12-14T03:14:38;98796.63;;;3.71;100.00
19624;BME280;9959;49.798;9.928;2023-12-14T03:17:07;98808.53;;;3.76;100.00
19624;BME280;9959;49.798;9.928;2023-12-14T03:19:40;98809.09;;;3.71;100.00
19624;BME280;9959;49.798;9.928;2023-12-14T03:22:08;98814.63;;;3.69;100.00
19624;BME280;9959;49.798;9.928;2023-12-14T03:24:36;98821.59;;;3.70;100.00
19624;BME280;9959;49.798;9.928;2023-12-14T03:27:03;98826.56;;;3.73;100.00
19624;BME280;9959;49.798;9.928;2023-12-14T03:29:31;98835.09;;;3.69;100.00
19624;BME280;9959;49.798;9.928;2023-12-14T03:31:58;98828.94;;;3.68;100.00
19624;BME280;9959;49.798;9.928;2023-12-14T03:34:25;98835.84;;;3.63;100.00
19624;BME280;9959;49.798;9.928;2023-12-14T03:36:53;98833.00;;;3.64;100.00
19624;BME280;9959;49.798;9.928;2023-12-14T03:39:19;98839.69;;;3.60;100.00
19624;BME280;9959;49.798;9.928;2023-12-14T03:41:46;98845.31;;;3.65;100.00
19624;BME280;9959;49.798;9.928;2023-12-14T03:44:17;98843.66;;;3.64;100.00
19624;BME280;9959;49.798;9.928;2023-12-14T03:46:44;98854.94;;;3.66;100.00
19624;BME280;9959;49.798;9.928;2023-12-14T03:49:11;98855.94;;;3.65;100.00
19624;BME280;9959;49.798;9.928;2023-12-14T03:51:39;98860.28;;;3.66;100.00
19624;BME280;9959;49.798;9.928;2023-12-14T03:54:06;98865.59;;;3.66;100.00
19624;BME280;9959;49.798;9.928;2023-12-14T03:56:33;98871.03;;;3.58;100.00
19624;BME280;9959;49.798;9.928;2023-12-14T03:59:00;98865.03;;;3.71;100.00
19624;BME280;9959;49.798;9.928;2023-12-14T04:01:27;98874.69;;;3.57;100.00
19624;BME280;9959;49.798;9.928;2023-12-14T04:03:54;98878.00;;;3.59;100.00
19624;BME280;9959;49.798;9.928;2023-12-14T04:06:21;98880.03;;;3.57;100.00
19624;BME280;9959;49.798;9.928;2023-12-14T04:08:48;98878.81;;;3.60;100.00
19624;BME280;9959;49.798;9.928;2023-12-14T04:11:15;98879.41;;;3.55;100.00
19624;BME280;9959;49.798;9.928;2023-12-14T04:13:42;98890.66;;;3.57;100.00
19624;BME280;9959;49.798;9.928;2023-12-14T04:16:09;98896.28;;;3.62;100.00
19624;BME280;9959;49.798;9.928;2023-12-14T04:18:36;98902.97;;;3.58;100.00
19624;BME280;9959;49.798;9.928;2023-12-14T04:21:04;98910.78;;;3.60;100.00
19624;BME280;9959;49.798;9.928;2023-12-14T04:23:31;98916.94;;;3.60;100.00
19624;BME280;9959;49.798;9.928;2023-12-14T04:25:58;98918.22;;;3.64;100.00
19624;BME280;9959;49.798;9.928;2023-12-14T04:28:25;98920.25;;;3.62;100.00
19624;BME280;9959;49.798;9.928;2023-12-14T04:30:52;98925.38;;;3.64;100.00
19624;BME280;9959;49.798;9.928;2023-12-14T04:33:20;98918.22;;;3.64;100.00
19624;BME280;9959;49.798;9.928;2023-12-14T04:35:47;98929.19;;;3.55;100.00
19624;BME280;9959;49.798;9.928;2023-12-14T04:38:14;98932.03;;;3.53;100.00
19624;BME280;9959;49.798;9.928;2023-12-14T04:40:41;98939.44;;;3.58;100.00
19624;BME280;9959;49.798;9.928;2023-12-14T04:43:09;98943.31;;;3.55;100.00
19624;BME280;9959;49.798;9.928;2023-12-14T04:45:36;98954.41;;;3.59;100.00
19624;BME280;9959;49.798;9.928;2023-12-14T04:48:03;98950.56;;;3.61;100.00
19624;BME280;9959;49.798;9.928;2023-12-14T04:50:30;98949.53;;;3.62;100.00
19624;BME280;9959;49.798;9.928;2023-12-14T04:52:57;98955.88;;;3.61;100.00
19624;BME280;9959;49.798;9.928;2023-12-14T04:55:24;98962.03;;;3.62;100.00
19624;BME280;9959;49.798;9.928;2023-12-14T04:57:50;98964.22;;;3.58;100.00
19624;BME280;9959;49.798;9.928;2023-12-14T05:00:18;98974.69;;;3.60;100.00
19624;BME280;9959;49.798;9.928;2023-12-14T05:02:48;98972.88;;;3.60;100.00
19624;BME280;9959;49.798;9.928;2023-12-14T05:05:15;98969.66;;;3.65;100.00
19624;BME280;9959;49.798;9.928;2023-12-14T05:07:42;98973.16;;;3.65;100.00
19624;BME280;9959;49.798;9.928;2023-12-14T05:10:09;98987.09;;;3.67;100.00
19624;BME280;9959;49.798;9.928;2023-12-14T05:12:37;98985.44;;;3.66;100.00
19624;BME280;9959;49.798;9.928;2023-12-14T05:15:05;98983.06;;;3.71;100.00
19624;BME280;9959;49.798;9.928;2023-12-14T05:17:33;98984.72;;;3.72;100.00
19624;BME280;9959;49.798;9.928;2023-12-14T05:20:04;98999.50;;;3.75;100.00
19624;BME280;9959;49.798;9.928;2023-12-14T05:22:35;98998.78;;;3.81;100.00
19624;BME280;9959;49.798;9.928;2023-12-14T05:25:03;99006.13;;;3.79;100.00
19624;BME280;9959;49.798;9.928;2023-12-14T05:27:31;99006.03;;;3.72;100.00
19624;BME280;9959;49.798;9.928;2023-12-14T05:29:58;99015.97;;;3.79;100.00
19624;BME280;9959;49.798;9.928;2023-12-14T05:32:25;99021.47;;;3.77;100.00
19624;BME280;9959;49.798;9.928;2023-12-14T05:34:52;99022.59;;;3.83;100.00
19624;BME280;9959;49.798;9.928;2023-12-14T05:37:19;99019.16;;;3.89;100.00
19624;BME280;9959;49.798;9.928;2023-12-14T05:39:46;99025.25;;;3.83;100.00
19624;BME280;9959;49.798;9.928;2023-12-14T05:42:16;99031.94;;;3.79;100.00
19624;BME280;9959;49.798;9.928;2023-12-14T05:44:44;99036.34;;;3.86;100.00
19624;BME280;9959;49.798;9.928;2023-12-14T05:47:12;99048.94;;;3.92;100.00
19624;BME280;9959;49.798;9.928;2023-12-14T05:49:43;99051.84;;;4.12;100.00
19624;BME280;9959;49.798;9.928;2023-12-14T05:52:10;99055.75;;;4.10;100.00
19624;BME280;9959;49.798;9.928;2023-12-14T05:54:38;99066.09;;;4.19;100.00
19624;BME280;9959;49.798;9.928;2023-12-14T05:57:10;99072.34;;;4.12;100.00
19624;BME280;9959;49.798;9.928;2023-12-14T05:59:40;99078.69;;;4.11;100.00
19624;BME280;9959;49.798;9.928;2023-12-14T06:02:12;99076.25;;;4.09;100.00
19624;BME280;9959;49.798;9.928;2023-12-14T06:04:40;99082.75;;;4.06;100.00
19624;BME280;9959;49.798;9.928;2023-12-14T06:07:10;99087.63;;;4.03;100.00
19624;BME280;9959;49.798;9.928;2023-12-14T06:09:39;99080.09;;;4.06;100.00
19624;BME280;9959;49.798;9.928;2023-12-14T06:12:06;99085.69;;;4.12;100.00
19624;BME280;9959;49.798;9.928;2023-12-14T06:14:33;99087.72;;;4.10;100.00
19624;BME280;9959;49.798;9.928;2023-12-14T06:17:00;99084.50;;;4.14;100.00
19624;BME280;9959;49.798;9.928;2023-12-14T06:19:27;99086.16;;;4.15;100.00
19624;BME280;9959;49.798;9.928;2023-12-14T06:21:54;99099.75;;;4.20;100.00
19624;BME280;9959;49.798;9.928;2023-12-14T06:24:21;99105.25;;;4.19;100.00
19624;BME280;9959;49.798;9.928;2023-12-14T06:26:49;99110.69;;;4.25;100.00
19624;BME280;9959;49.798;9.928;2023-12-14T06:29:16;99112.72;;;4.23;100.00
19624;BME280;9959;49.798;9.928;2023-12-14T06:31:45;99121.16;;;4.41;100.00
19624;BME280;9959;49.798;9.928;2023-12-14T06:34:12;99118.34;;;4.28;100.00
19624;BME280;9959;49.798;9.928;2023-12-14T06:36:44;99118.59;;;4.33;100.00
19624;BME280;9959;49.798;9.928;2023-12-14T06:39:11;99127.63;;;4.32;100.00
19624;BME280;9959;49.798;9.928;2023-12-14T06:41:41;99119.97;;;4.29;100.00
19624;BME280;9959;49.798;9.928;2023-12-14T06:44:08;99131.94;;;4.33;100.00
19624;BME280;9959;49.798;9.928;2023-12-14T06:46:36;99138.72;;;4.21;100.00
19624;BME280;9959;49.798;9.928;2023-12-14T06:49:03;99140.59;;;4.35;100.00
19624;BME280;9959;49.798;9.928;2023-12-14T06:51:30;99137.28;;;4.33;100.00
19624;BME280;9959;49.798;9.928;2023-12-14T06:53:57;99141.69;;;4.26;100.00
19624;BME280;9959;49.798;9.928;2023-12-14T06:56:24;99150.94;;;4.16;100.00
19624;BME280;9959;49.798;9.928;2023-12-14T06:58:51;99154.00;;;4.27;100.00
19624;BME280;9959;49.798;9.928;2023-12-14T07:01:19;99162.38;;;4.24;100.00
19624;BME280;9959;49.798;9.928;2023-12-14T07:03:46;99169.63;;;4.30;100.00
19624;BME280;9959;49.798;9.928;2023-12-14T07:06:16;99170.72;;;4.21;100.00
19624;BME280;9959;49.798;9.928;2023-12-14T07:08:43;99171.94;;;4.33;100.00
19624;BME280;9959;49.798;9.928;2023-12-14T07:11:11;99172.94;;;4.32;100.00
19624;BME280;9959;49.798;9.928;2023-12-14T07:13:38;99172.19;;;4.38;100.00
19624;BME280;9959;49.798;9.928;2023-12-14T07:16:07;99180.47;;;4.43;100.00
19624;BME280;9959;49.798;9.928;2023-12-14T07:18:35;99183.78;;;4.46;100.00
19624;BME280;9959;49.798;9.928;2023-12-14T07:21:03;99194.91;;;4.49;100.00
19624;BME280;9959;49.798;9.928;2023-12-14T07:23:31;99196.13;;;4.47;100.00
19624;BME280;9959;49.798;9.928;2023-12-14T07:25:58;99203.81;;;4.41;100.00
19624;BME280;9959;49.798;9.928;2023-12-14T07:28:29;99204.03;;;4.55;100.00
19624;BME280;9959;49.798;9.928;2023-12-14T07:30:56;99208.44;;;4.48;100.00
19624;BME280;9959;49.798;9.928;2023-12-14T07:33:24;99214.25;;;4.51;100.00
19624;BME280;9959;49.798;9.928;2023-12-14T07:35:51;99213.97;;;4.61;100.00
19624;BME280;9959;49.798;9.928;2023-12-14T07:38:18;99220.03;;;4.55;100.00
19624;BME280;9959;49.798;9.928;2023-12-14T07:40:45;99216.72;;;4.53;100.00
19624;BME280;9959;49.798;9.928;2023-12-14T07:43:13;99226.31;;;4.62;100.00
19624;BME280;9959;49.798;9.928;2023-12-14T07:45:40;99233.19;;;4.56;100.00
19624;BME280;9959;49.798;9.928;2023-12-14T07:48:07;99236.16;;;4.61;100.00
19624;BME280;9959;49.798;9.928;2023-12-14T07:50:35;99241.56;;;4.68;100.00
19624;BME280;9959;49.798;9.928;2023-12-14T07:53:02;99248.19;;;4.72;100.00
19624;BME280;9959;49.798;9.928;2023-12-14T07:55:30;99249.56;;;4.83;100.00
19624;BME280;9959;49.798;9.928;2023-12-14T07:57:57;99250.13;;;4.78;100.00
19624;BME280;9959;49.798;9.928;2023-12-14T08:00:24;99260.25;;;4.83;100.00
19624;BME280;9959;49.798;9.928;2023-12-14T08:02:51;99270.25;;;4.95;100.00
19624;BME280;9959;49.798;9.928;2023-12-14T08:05:18;99267.72;;;4.87;100.00
19624;BME280;9959;49.798;9.928;2023-12-14T08:07:46;99277.72;;;5.00;100.00
19624;BME280;9959;49.798;9.928;2023-12-14T08:10:13;99270.44;;;5.08;100.00
19624;BME280;9959;49.798;9.928;2023-12-14T08:12:40;99279.09;;;5.10;100.00
19624;BME280;9959;49.798;9.928;2023-12-14T08:15:07;99285.91;;;5.13;100.00
19624;BME280;9959;49.798;9.928;2023-12-14T08:17:35;99293.38;;;5.18;100.00
19624;BME280;9959;49.798;9.928;2023-12-14T08:20:02;99304.25;;;5.16;100.00
19624;BME280;9959;49.798;9.928;2023-12-14T08:22:31;99299.44;;;5.12;100.00
19624;BME280;9959;49.798;9.928;2023-12-14T08:24:58;99298.44;;;5.13;100.00
19624;BME280;9959;49.798;9.928;2023-12-14T08:27:25;99305.72;;;5.19;100.00
19624;BME280;9959;49.798;9.928;2023-12-14T08:29:53;99309.28;;;5.26;100.00
19624;BME280;9959;49.798;9.928;2023-12-14T08:32:20;99320.97;;;5.25;100.00
19624;BME280;9959;49.798;9.928;2023-12-14T08:34:47;99324.19;;;5.35;100.00
19624;BME280;9959;49.798;9.928;2023-12-14T08:37:14;99322.44;;;5.27;100.00
19624;BME280;9959;49.798;9.928;2023-12-14T08:39:41;99329.81;;;5.40;100.00
19624;BME280;9959;49.798;9.928;2023-12-14T08:42:09;99335.97;;;5.26;100.00
19624;BME280;9959;49.798;9.928;2023-12-14T08:44:39;99345.09;;;5.31;100.00
19624;BME280;9959;49.798;9.928;2023-12-14T08:47:06;99353.78;;;5.19;100.00
19624;BME280;9959;49.798;9.928;2023-12-14T08:49:36;99347.59;;;5.33;100.00
19624;BME280;9959;49.798;9.928;2023-12-14T08:52:03;99361.88;;;5.40;100.00
19624;BME280;9959;49.798;9.928;2023-12-14T08:54:31;99369.16;;;5.46;100.00
19624;BME280;9959;49.798;9.928;2023-12-14T08:56:58;99368.50;;;5.44;100.00
19624;BME280;9959;49.798;9.928;2023-12-14T08:59:25;99382.09;;;5.49;100.00
19624;BME280;9959;49.798;9.928;2023-12-14T09:01:52;99383.22;;;5.55;100.00
19624;BME280;9959;49.798;9.928;2023-12-14T09:04:20;99384.97;;;5.48;100.00
19624;BME280;9959;49.798;9.928;2023-12-14T09:06:47;99395.94;;;5.67;100.00
19624;BME280;9959;49.798;9.928;2023-12-14T09:09:14;99406.06;;;5.72;100.00
19624;BME280;9959;49.798;9.928;2023-12-14T09:11:41;99401.09;;;5.69;100.00
19624;BME280;9959;49.798;9.928;2023-12-14T09:14:08;99409.44;;;5.81;100.00
19624;BME280;9959;49.798;9.928;2023-12-14T09:16:35;99406.94;;;5.79;100.00
19624;BME280;9959;49.798;9.928;2023-12-14T09:19:02;99417.03;;;5.62;100.00
19624;BME280;9959;49.798;9.928;2023-12-14T09:21:29;99410.38;;;5.58;100.00
19624;BME280;9959;49.798;9.928;2023-12-14T09:24:09;99409.91;;;5.84;100.00
19624;BME280;9959;49.798;9.928;2023-12-14T09:26:39;99416.63;;;5.80;100.00
19624;BME280;9959;49.798;9.928;2023-12-14T09:29:06;99414.88;;;5.87;100.00
19624;BME280;9959;49.798;9.928;2023-12-14T09:31:34;99412.03;;;5.89;100.00
19624;BME280;9959;49.798;9.928;2023-12-14T09:34:02;99420.34;;;5.94;100.00
19624;BME280;9959;49.798;9.928;2023-12-14T09:36:29;99422.69;;;6.03;100.00
19624;BME280;9959;49.798;9.928;2023-12-14T09:38:56;99427.75;;;6.13;100.00
19624;BME280;9959;49.798;9.928;2023-12-14T09:41:23;99432.34;;;6.19;100.00
19624;BME280;9959;49.798;9.928;2023-12-14T09:43:51;99436.97;;;6.25;100.00
19624;BME280;9959;49.798;9.928;2023-12-14T09:46:18;99441.78;;;6.36;100.00
19624;BME280;9959;49.798;9.928;2023-12-14T09:48:46;99450.19;;;6.33;100.00
19624;BME280;9959;49.798;9.928;2023-12-14T09:51:15;99457.47;;;6.39;100.00
19624;BME280;9959;49.798;9.928;2023-12-14T09:53:43;99458.25;;;6.55;100.00
19624;BME280;9959;49.798;9.928;2023-12-14T09:56:10;99456.34;;;6.49;100.00
19624;BME280;9959;49.798;9.928;2023-12-14T09:58:37;99458.06;;;6.56;100.00
19624;BME280;9959;49.798;9.928;2023-12-14T10:01:21;99463.44;;;6.56;100.00
19624;BME280;9959;49.798;9.928;2023-12-14T10:03:49;99460.53;;;6.58;100.00
19624;BME280;9959;49.798;9.928;2023-12-14T10:06:17;99467.53;;;6.59;100.00
19624;BME280;9959;49.798;9.928;2023-12-14T10:08:54;99464.75;;;6.67;100.00
19624;BME280;9959;49.798;9.928;2023-12-14T10:11:22;99461.56;;;6.78;100.00
19624;BME280;9959;49.798;9.928;2023-12-14T10:13:49;99462.03;;;6.82;100.00
19624;BME280;9959;49.798;9.928;2023-12-14T10:16:30;99477.63;;;6.78;100.00
19624;BME280;9959;49.798;9.928;2023-12-14T10:18:58;99472.38;;;6.91;100.00
19624;BME280;9959;49.798;9.928;2023-12-14T10:21:27;99480.97;;;6.80;100.00
19624;BME280;9959;49.798;9.928;2023-12-14T10:23:58;99471.06;;;7.02;100.00
19624;BME280;9959;49.798;9.928;2023-12-14T10:26:25;99476.22;;;7.03;100.00
19624;BME280;9959;49.798;9.928;2023-12-14T10:28:52;99487.19;;;6.87;100.00
19624;BME280;9959;49.798;9.928;2023-12-14T10:31:21;99486.66;;;6.98;100.00
19624;BME280;9959;49.798;9.928;2023-12-14T10:33:49;99490.13;;;6.92;100.00
19624;BME280;9959;49.798;9.928;2023-12-14T10:36:22;99487.25;;;6.94;100.00
19624;BME280;9959;49.798;9.928;2023-12-14T10:38:53;99484.38;;;6.95;100.00
19624;BME280;9959;49.798;9.928;2023-12-14T10:41:21;99487.25;;;6.94;100.00
19624;BME280;9959;49.798;9.928;2023-12-14T10:43:56;99493.75;;;6.85;100.00
19624;BME280;9959;49.798;9.928;2023-12-14T10:46:48;99488.19;;;6.86;100.00
19624;BME280;9959;49.798;9.928;2023-12-14T10:49:16;99488.00;;;6.88;100.00
19624;BME280;9959;49.798;9.928;2023-12-14T10:51:44;99487.31;;;7.00;100.00
19624;BME280;9959;49.798;9.928;2023-12-14T10:54:15;99494.97;;;7.03;100.00
19624;BME280;9959;49.798;9.928;2023-12-14T10:56:42;99501.81;;;7.12;100.00
19624;BME280;9959;49.798;9.928;2023-12-14T10:59:09;99499.41;;;7.18;100.00
19624;BME280;9959;49.798;9.928;2023-12-14T11:01:36;99497.94;;;7.15;100.00
19624;BME280;9959;49.798;9.928;2023-12-14T11:04:06;99511.69;;;7.05;100.00
19624;BME280;9959;49.798;9.928;2023-12-14T11:06:39;99514.81;;;7.09;100.00
19624;BME280;9959;49.798;9.928;2023-12-14T11:09:08;99520.59;;;6.91;100.00
19624;BME280;9959;49.798;9.928;2023-12-14T11:11:55;99520.47;;;6.99;100.00
19624;BME280;9959;49.798;9.928;2023-12-14T11:14:25;99532.69;;;6.87;100.00
19624;BME280;9959;49.798;9.928;2023-12-14T11:16:56;99521.09;;;7.01;100.00
19624;BME280;9959;49.798;9.928;2023-12-14T11:19:25;99533.22;;;6.97;100.00
19624;BME280;9959;49.798;9.928;2023-12-14T11:24:32;99536.41;;;6.86;100.00
19624;BME280;9959;49.798;9.928;2023-12-14T11:27:07;99543.66;;;6.92;100.00
19624;BME280;9959;49.798;9.928;2023-12-14T11:29:38;99540.50;;;6.82;100.00
19624;BME280;9959;49.798;9.928;2023-12-14T11:32:06;99537.03;;;6.88;100.00
19624;BME280;9959;49.798;9.928;2023-12-14T11:34:33;99551.41;;;6.81;100.00
19624;BME280;9959;49.798;9.928;2023-12-14T11:37:00;99556.28;;;6.77;100.00
19624;BME280;9959;49.798;9.928;2023-12-14T11:39:30;99558.16;;;6.76;100.00
19624;BME280;9959;49.798;9.928;2023-12-14T11:42:04;99561.28;;;6.80;100.00
19624;BME280;9959;49.798;9.928;2023-12-14T11:44:33;99566.09;;;6.70;100.00
19624;BME280;9959;49.798;9.928;2023-12-14T11:47:01;99571.06;;;6.73;100.00
19624;BME280;9959;49.798;9.928;2023-12-14T11:49:28;99572.47;;;6.69;100.00
19624;BME280;9959;49.798;9.928;2023-12-14T11:51:56;99566.09;;;6.70;100.00
19624;BME280;9959;49.798;9.928;2023-12-14T11:54:23;99569.34;;;6.65;100.00
19624;BME280;9959;49.798;9.928;2023-12-14T11:56:50;99577.19;;;6.67;100.00
19624;BME280;9959;49.798;9.928;2023-12-14T11:59:18;99585.84;;;6.69;100.00
19624;BME280;9959;49.798;9.928;2023-12-14T12:02:00;99581.88;;;6.79;100.00
19624;BME280;9959;49.798;9.928;2023-12-14T12:04:28;99576.56;;;6.86;100.00
19624;BME280;9959;49.798;9.928;2023-12-14T12:06:59;99580.13;;;6.72;100.00
19624;BME280;9959;49.798;9.928;2023-12-14T12:09:34;99578.34;;;6.79;100.00
19624;BME280;9959;49.798;9.928;2023-12-14T12:12:06;99589.25;;;6.77;100.00
19624;BME280;9959;49.798;9.928;2023-12-14T12:14:34;99592.13;;;6.76;100.00
19624;BME280;9959;49.798;9.928;2023-12-14T12:17:01;99585.56;;;6.78;100.00
19624;BME280;9959;49.798;9.928;2023-12-14T12:19:28;99586.03;;;6.82;100.00
19624;BME280;9959;49.798;9.928;2023-12-14T12:21:55;99592.06;;;6.91;100.00
19624;BME280;9959;49.798;9.928;2023-12-14T12:24:22;99595.44;;;6.78;100.00
19624;BME280;9959;49.798;9.928;2023-12-14T12:26:53;99591.56;;;6.81;100.00
19624;BME280;9959;49.798;9.928;2023-12-14T12:29:21;99600.41;;;6.81;100.00
19624;BME280;9959;49.798;9.928;2023-12-14T12:31:49;99604.56;;;6.84;100.00
19624;BME280;9959;49.798;9.928;2023-12-14T12:34:16;99611.97;;;6.82;100.00
19624;BME280;9959;49.798;9.928;2023-12-14T12:36:43;99613.09;;;6.72;100.00
19624;BME280;9959;49.798;9.928;2023-12-14T12:39:10;99611.88;;;6.75;100.00
19624;BME280;9959;49.798;9.928;2023-12-14T12:41:37;99611.50;;;6.78;100.00
19624;BME280;9959;49.798;9.928;2023-12-14T12:44:05;99616.97;;;6.70;100.00
19624;BME280;9959;49.798;9.928;2023-12-14T12:46:34;99617.81;;;6.56;100.00
19624;BME280;9959;49.798;9.928;2023-12-14T12:49:02;99619.03;;;6.53;100.00
19624;BME280;9959;49.798;9.928;2023-12-14T12:51:31;99623.19;;;6.56;100.00
19624;BME280;9959;49.798;9.928;2023-12-14T12:53:59;99622.91;;;6.51;100.00
19624;BME280;9959;49.798;9.928;2023-12-14T12:56:38;99626.88;;;6.55;100.00
19624;BME280;9959;49.798;9.928;2023-12-14T12:59:05;99622.78;;;6.59;100.00
19624;BME280;9959;49.798;9.928;2023-12-14T13:01:35;99633.13;;;6.62;100.00
19624;BME280;9959;49.798;9.928;2023-12-14T13:04:03;99630.94;;;6.51;100.00
19624;BME280;9959;49.798;9.928;2023-12-14T13:06:31;99635.34;;;6.43;100.00
19624;BME280;9959;49.798;9.928;2023-12-14T13:08:58;99634.34;;;6.44;100.00
19624;BME280;9959;49.798;9.928;2023-12-14T13:11:25;99641.53;;;6.44;100.00
19624;BME280;9959;49.798;9.928;2023-12-14T13:13:52;99646.91;;;6.44;100.00
19624;BME280;9959;49.798;9.928;2023-12-14T13:16:19;99648.19;;;6.48;100.00
19624;BME280;9959;49.798;9.928;2023-12-14T13:18:46;99654.09;;;6.43;100.00
19624;BME280;9959;49.798;9.928;2023-12-14T13:21:13;99654.84;;;6.52;100.00